Date,TemperatureHighF,TemperatureAvgF,TemperatureLowF,DewpointHighF,DewpointAvgF,DewpointLowF,HumidityHigh,HumidityAvg,HumidityLow,PressureMaxIn,PressureMinIn,WindSpeedMaxMPH,WindSpeedAvgMPH,GustSpeedMaxMPH,PrecipitationSumIn
2013-10-1,52.2,47.2,44.9,49.4,46.2,44.6,100,96,85,30.03,29.81,1,0,12,0.54
2013-10-2,50.5,46.2,39.5,49.4,45.7,38.5,100,98,95,30.12,30.01,0,0,12,0.48
2013-10-3,56.7,45.7,36.2,48.9,43.2,35.9,100,92,73,30.41,30.13,1,0,12,0.00
2013-10-4,58.7,47.6,35.6,51.7,44.5,35.6,100,90,69,30.43,30.29,3,0,12,0.00
2013-10-5,64.7,54.8,49.1,53.4,49.8,47.9,98,85,57,30.30,30.08,1,0,12,0.00
2013-10-6,72.8,57.7,43.3,55.3,47.1,38.6,100,72,37,30.07,29.75,2,0,12,0.00
2013-10-7,56.7,53.1,50.7,52.6,50.1,47.2,99,90,75,29.86,29.75,5,1,12,0.43
2013-10-8,57.2,48.5,39.2,49.7,45.9,39.2,100,92,66,30.04,29.84,2,0,12,0.15
2013-10-9,57.3,45.8,36.2,46.6,41.8,36.2,100,88,58,30.08,29.89,2,0,12,0.01
2013-10-10,57.0,47.5,39.8,48.9,45.0,39.5,100,92,68,30.01,29.86,3,0,12,0.00
2013-10-11,53.9,44.4,34.1,47.8,41.6,33.8,100,91,69,30.08,30.01,1,0,12,0.00
2013-10-12,59.8,47.3,38.5,46.8,43.2,38.5,100,87,60,30.15,30.01,3,0,12,0.00
2013-10-13,59.6,43.7,32.4,43.5,38.5,32.4,100,85,49,30.31,30.16,2,0,12,0.01
2013-10-14,60.5,44.5,32.9,47.4,40.4,32.9,100,87,59,30.37,30.31,2,0,12,0.00
2013-10-15,60.1,47.5,36.3,50.1,43.9,36.3,100,89,61,30.33,30.12,3,0,12,0.00
2013-10-16,65.3,48.3,36.9,51.1,43.9,36.9,100,87,50,30.14,30.08,1,0,12,0.00
2013-10-17,61.0,46.0,34.7,49.9,42.6,34.7,100,90,65,30.22,30.14,2,0,12,0.00
2013-10-18,59.9,45.3,34.6,50.2,42.4,34.6,100,91,67,30.20,30.10,2,0,5,0.00
2013-10-19,50.1,43.1,35.0,47.7,42.5,35.0,100,98,89,30.14,30.09,3,0,5,0.01
2013-10-20,49.9,46.3,43.8,48.0,45.9,43.8,100,99,93,30.15,30.09,0,0,0,0.00
2013-10-21,55.4,45.4,38.9,50.9,44.8,38.9,100,98,83,30.12,30.05,2,0,3,0.00
2013-10-22,62.7,46.5,35.8,52.5,44.4,35.8,100,93,69,30.08,29.98,2,0,3,0.01
2013-10-23,66.4,48.9,37.8,52.2,45.0,37.8,100,89,57,29.99,29.92,2,0,4,0.00
2013-10-24,64.3,47.5,36.8,51.1,43.9,36.8,100,89,60,30.03,29.95,2,0,5,0.01
2013-10-25,50.8,47.0,41.6,50.2,45.9,41.6,100,96,88,30.27,30.04,0,0,0,0.01
2013-10-26,53.3,49.1,47.3,47.2,46.1,44.9,97,90,77,30.29,30.11,1,0,3,0.00
2013-10-27,57.0,50.6,43.9,50.1,43.7,30.7,100,80,40,30.10,29.89,4,1,9,0.28
2013-10-28,58.9,50.8,35.8,31.4,26.2,22.4,79,40,25,29.99,29.89,4,2,14,0.00
2013-10-29,55.9,41.2,30.1,36.7,31.4,28.1,96,72,39,29.97,29.89,2,0,4,0.00
2013-10-30,53.5,43.5,32.9,45.7,39.2,32.4,99,86,53,30.05,29.96,1,0,2,0.06
2013-10-31,49.2,47.7,45.8,49.2,47.7,45.5,100,100,99,30.18,30.01,0,0,0,0.20